sensor_id;sensor_type;location;lat;lon;timestamp;pressure;altitude;pressure_sealevel;temperature;humidity
63808;BME280;49961;43.970;22.868;2022-08-01T00:00:26;101003.94;;;21.80;100.00
63808;BME280;49961;43.970;22.868;2022-08-01T00:01:27;101005.69;;;21.77;100.00
63808;BME280;49961;43.970;22.868;2022-08-01T00:02:28;101006.97;;;21.76;100.00
63808;BME280;49961;43.970;22.868;2022-08-01T00:03:28;100893.44;;;20.99;100.00
63808;BME280;49961;43.970;22.868;2022-08-01T00:04:29;100874.09;;;20.87;100.00
63808;BME280;49961;43.970;22.868;2022-08-01T00:05:29;100998.22;;;21.74;100.00
63808;BME280;49961;43.970;22.868;2022-08-01T00:06:30;101008.00;;;21.79;100.00
63808;BME280;49961;43.970;22.868;2022-08-01T00:07:32;101005.22;;;21.84;100.00
63808;BME280;49961;43.970;22.868;2022-08-01T00:08:32;100895.88;;;21.12;100.00
63808;BME280;49961;43.970;22.868;2022-08-01T00:09:33;100924.50;;;21.30;100.00
63808;BME280;49961;43.970;22.868;2022-08-01T00:10:34;101006.78;;;21.85;100.00
63808;BME280;49961;43.970;22.868;2022-08-01T00:11:34;100914.16;;;21.22;100.00
63808;BME280;49961;43.970;22.868;2022-08-01T00:12:34;100994.69;;;21.79;100.00
63808;BME280;49961;43.970;22.868;2022-08-01T00:13:35;100982.09;;;21.75;100.00
63808;BME280;49961;43.970;22.868;2022-08-01T00:14:35;100933.81;;;21.42;100.00
63808;BME280;49961;43.970;22.868;2022-08-01T00:15:36;100918.25;;;21.21;100.00
63808;BME280;49961;43.970;22.868;2022-08-01T00:16:37;100925.75;;;21.29;100.00
63808;BME280;49961;43.970;22.868;2022-08-01T00:17:38;101004.97;;;21.82;100.00
63808;BME280;49961;43.970;22.868;2022-08-01T00:18:39;100915.66;;;21.17;100.00
63808;BME280;49961;43.970;22.868;2022-08-01T00:19:39;101009.59;;;21.85;100.00
63808;BME280;49961;43.970;22.868;2022-08-01T00:20:40;101003.19;;;21.85;100.00
63808;BME280;49961;43.970;22.868;2022-08-01T00:21:40;100950.78;;;21.47;100.00
63808;BME280;49961;43.970;22.868;2022-08-01T00:22:41;100942.81;;;21.46;100.00
63808;BME280;49961;43.970;22.868;2022-08-01T00:23:41;100999.84;;;21.86;100.00
63808;BME280;49961;43.970;22.868;2022-08-01T00:24:42;100997.56;;;21.85;100.00
63808;BME280;49961;43.970;22.868;2022-08-01T00:25:42;100946.97;;;21.50;100.00
63808;BME280;49961;43.970;22.868;2022-08-01T00:26:43;100995.47;;;21.80;100.00
63808;BME280;49961;43.970;22.868;2022-08-01T00:27:43;101008.94;;;21.96;100.00
63808;BME280;49961;43.970;22.868;2022-08-01T00:28:43;101017.16;;;21.99;100.00
63808;BME280;49961;43.970;22.868;2022-08-01T00:29:44;101003.00;;;21.94;100.00
63808;BME280;49961;43.970;22.868;2022-08-01T00:30:44;100990.09;;;21.82;100.00
63808;BME280;49961;43.970;22.868;2022-08-01T00:31:45;100956.78;;;21.60;100.00
63808;BME280;49961;43.970;22.868;2022-08-01T00:32:46;101004.50;;;21.89;100.00
63808;BME280;49961;43.970;22.868;2022-08-01T00:33:46;101008.06;;;21.84;100.00
63808;BME280;49961;43.970;22.868;2022-08-01T00:34:47;101005.22;;;21.84;100.00
63808;BME280;49961;43.970;22.868;2022-08-01T00:35:47;101003.19;;;21.85;100.00
63808;BME280;49961;43.970;22.868;2022-08-01T00:36:48;101009.59;;;21.85;100.00
63808;BME280;49961;43.970;22.868;2022-08-01T00:37:48;100994.41;;;21.77;100.00
63808;BME280;49961;43.970;22.868;2022-08-01T00:38:49;101003.53;;;21.92;100.00
63808;BME280;49961;43.970;22.868;2022-08-01T00:39:49;100940.50;;;21.44;100.00
63808;BME280;49961;43.970;22.868;2022-08-01T00:40:50;101010.09;;;21.84;100.00
63808;BME280;49961;43.970;22.868;2022-08-01T00:41:50;101004.75;;;21.86;100.00
63808;BME280;49961;43.970;22.868;2022-08-01T00:42:51;101009.16;;;21.92;100.00
63808;BME280;49961;43.970;22.868;2022-08-01T00:43:51;101003.72;;;21.89;100.00
63808;BME280;49961;43.970;22.868;2022-08-01T00:44:52;101012.50;;;21.96;100.00
63808;BME280;49961;43.970;22.868;2022-08-01T00:45:52;101008.63;;;21.94;100.00
63808;BME280;49961;43.970;22.868;2022-08-01T00:46:53;100994.66;;;21.74;100.00
63808;BME280;49961;43.970;22.868;2022-08-01T00:47:53;101011.91;;;21.87;100.00
63808;BME280;49961;43.970;22.868;2022-08-01T00:48:54;101013.69;;;21.84;100.00
63808;BME280;49961;43.970;22.868;2022-08-01T00:49:55;101012.97;;;21.89;100.00
63808;BME280;49961;43.970;22.868;2022-08-01T00:50:56;100954.16;;;21.51;100.00
63808;BME280;49961;43.970;22.868;2022-08-01T00:51:56;101008.31;;;21.86;100.00
63808;BME280;49961;43.970;22.868;2022-08-01T00:52:59;101007.28;;;21.84;100.00
63808;BME280;49961;43.970;22.868;2022-08-01T00:54:00;101008.00;;;21.79;100.00
63808;BME280;49961;43.970;22.868;2022-08-01T00:55:01;101006.47;;;21.78;100.00
63808;BME280;49961;43.970;22.868;2022-08-01T00:56:02;101008.28;;;21.81;100.00
63808;BME280;49961;43.970;22.868;2022-08-01T00:57:03;101000.38;;;21.85;100.00
63808;BME280;49961;43.970;22.868;2022-08-01T00:58:04;100994.19;;;21.81;100.00
63808;BME280;49961;43.970;22.868;2022-08-01T00:59:05;100943.56;;;21.41;100.00
63808;BME280;49961;43.970;22.868;2022-08-01T01:00:08;100989.59;;;21.83;100.00
63808;BME280;49961;43.970;22.868;2022-08-01T01:01:09;100961.69;;;21.65;100.00
63808;BME280;49961;43.970;22.868;2022-08-01T01:02:09;100971.56;;;21.75;100.00
63808;BME280;49961;43.970;22.868;2022-08-01T01:03:10;100976.53;;;21.86;100.00
63808;BME280;49961;43.970;22.868;2022-08-01T01:04:11;100986.59;;;21.92;100.00
63808;BME280;49961;43.970;22.868;2022-08-01T01:05:11;100957.34;;;21.64;100.00
63808;BME280;49961;43.970;22.868;2022-08-01T01:07:32;100984.41;;;21.76;100.00
63808;BME280;49961;43.970;22.868;2022-08-01T01:08:41;100988.00;;;21.77;100.00
63808;BME280;49961;43.970;22.868;2022-08-01T01:09:51;100995.91;;;21.73;100.00
63808;BME280;49961;43.970;22.868;2022-08-01T01:11:09;100986.69;;;21.72;100.00
63808;BME280;49961;43.970;22.868;2022-08-01T01:12:32;101001.03;;;21.74;100.00
63808;BME280;49961;43.970;22.868;2022-08-01T01:13:38;100992.59;;;21.74;100.00
63808;BME280;49961;43.970;22.868;2022-08-01T01:15:52;100994.59;;;21.68;100.00
63808;BME280;49961;43.970;22.868;2022-08-01T01:16:57;101001.84;;;21.75;100.00
63808;BME280;49961;43.970;22.868;2022-08-01T01:18:05;101005.63;;;21.72;100.00
63808;BME280;49961;43.970;22.868;2022-08-01T01:19:11;101008.88;;;21.65;100.00
63808;BME280;49961;43.970;22.868;2022-08-01T01:20:14;101013.00;;;21.64;100.00
63808;BME280;49961;43.970;22.868;2022-08-01T01:22:32;100996.81;;;21.64;100.00
63808;BME280;49961;43.970;22.868;2022-08-01T01:25:09;101004.09;;;21.71;100.00
63808;BME280;49961;43.970;22.868;2022-08-01T01:29:16;101005.25;;;21.59;100.00
63808;BME280;49961;43.970;22.868;2022-08-01T01:30:18;101011.09;;;21.55;100.00
63808;BME280;49961;43.970;22.868;2022-08-01T01:31:19;100989.53;;;21.52;100.00
63808;BME280;49961;43.970;22.868;2022-08-01T01:32:38;101006.25;;;21.56;100.00
63808;BME280;49961;43.970;22.868;2022-08-01T01:33:40;101009.56;;;21.54;100.00
63808;BME280;49961;43.970;22.868;2022-08-01T01:34:43;101002.94;;;21.57;100.00
63808;BME280;49961;43.970;22.868;2022-08-01T01:35:48;101003.88;;;21.49;100.00
63808;BME280;49961;43.970;22.868;2022-08-01T01:36:52;101007.69;;;21.46;100.00
63808;BME280;49961;43.970;22.868;2022-08-01T01:38:17;101000.75;;;21.47;100.00
63808;BME280;49961;43.970;22.868;2022-08-01T01:39:18;100998.72;;;21.47;100.00
63808;BME280;49961;43.970;22.868;2022-08-01T01:40:19;101015.56;;;21.42;100.00
63808;BME280;49961;43.970;22.868;2022-08-01T01:41:22;100956.94;;;21.20;100.00
63808;BME280;49961;43.970;22.868;2022-08-01T01:42:25;100995.91;;;21.47;100.00
63808;BME280;49961;43.970;22.868;2022-08-01T01:43:27;100973.16;;;21.25;100.00
63808;BME280;49961;43.970;22.868;2022-08-01T01:44:30;100959.53;;;21.24;100.00
63808;BME280;49961;43.970;22.868;2022-08-01T01:45:31;100934.72;;;21.02;100.00
63808;BME280;49961;43.970;22.868;2022-08-01T01:46:32;100945.72;;;21.00;100.00
63808;BME280;49961;43.970;22.868;2022-08-01T01:47:34;100915.84;;;20.88;100.00
63808;BME280;49961;43.970;22.868;2022-08-01T01:48:37;100911.34;;;20.96;100.00
63808;BME280;49961;43.970;22.868;2022-08-01T01:49:39;100986.97;;;21.49;100.00
63808;BME280;49961;43.970;22.868;2022-08-01T01:50:43;100986.44;;;21.50;100.00
63808;BME280;49961;43.970;22.868;2022-08-01T01:51:46;100987.28;;;21.56;100.00
63808;BME280;49961;43.970;22.868;2022-08-01T01:52:48;100885.94;;;20.91;100.00
63808;BME280;49961;43.970;22.868;2022-08-01T01:53:52;100914.88;;;21.17;100.00
63808;BME280;49961;43.970;22.868;2022-08-01T01:54:54;100976.72;;;21.51;100.00
63808;BME280;49961;43.970;22.868;2022-08-01T01:55:57;100971.03;;;21.46;100.00
63808;BME280;49961;43.970;22.868;2022-08-01T01:56:59;100957.47;;;21.24;100.00
63808;BME280;49961;43.970;22.868;2022-08-01T01:58:01;100909.53;;;20.93;100.00
63808;BME280;49961;43.970;22.868;2022-08-01T01:59:02;100923.22;;;21.06;100.00
63808;BME280;49961;43.970;22.868;2022-08-01T02:00:04;100978.16;;;21.41;100.00
63808;BME280;49961;43.970;22.868;2022-08-01T02:01:07;100978.94;;;21.42;100.00
63808;BME280;49961;43.970;22.868;2022-08-01T02:02:09;100897.34;;;20.82;100.00
63808;BME280;49961;43.970;22.868;2022-08-01T02:03:12;100975.03;;;21.34;100.00
63808;BME280;49961;43.970;22.868;2022-08-01T02:04:12;100975.53;;;21.38;100.00
63808;BME280;49961;43.970;22.868;2022-08-01T02:05:14;100976.06;;;21.36;100.00
63808;BME280;49961;43.970;22.868;2022-08-01T02:06:16;100980.91;;;21.36;100.00
63808;BME280;49961;43.970;22.868;2022-08-01T02:07:20;100924.09;;;20.92;100.00
63808;BME280;49961;43.970;22.868;2022-08-01T02:08:21;100966.72;;;21.25;100.00
63808;BME280;49961;43.970;22.868;2022-08-01T02:09:25;100882.03;;;20.63;100.00
63808;BME280;49961;43.970;22.868;2022-08-01T02:10:28;100975.50;;;21.32;100.00
63808;BME280;49961;43.970;22.868;2022-08-01T02:11:30;100971.63;;;21.30;100.00
63808;BME280;49961;43.970;22.868;2022-08-01T02:12:34;100969.31;;;21.28;100.00
63808;BME280;49961;43.970;22.868;2022-08-01T02:13:37;100927.44;;;20.90;100.00
63808;BME280;49961;43.970;22.868;2022-08-01T02:14:39;100969.66;;;21.36;100.00
63808;BME280;49961;43.970;22.868;2022-08-01T02:15:40;100963.75;;;21.34;100.00
63808;BME280;49961;43.970;22.868;2022-08-01T02:16:43;100934.34;;;21.15;100.00
63808;BME280;49961;43.970;22.868;2022-08-01T02:17:47;100963.19;;;21.30;100.00
63808;BME280;49961;43.970;22.868;2022-08-01T02:18:49;100915.78;;;21.03;100.00
63808;BME280;49961;43.970;22.868;2022-08-01T02:19:49;100963.06;;;21.44;100.00
63808;BME280;49961;43.970;22.868;2022-08-01T02:20:52;100958.13;;;21.39;100.00
63808;BME280;49961;43.970;22.868;2022-08-01T02:22:01;100959.19;;;21.42;100.00
63808;BME280;49961;43.970;22.868;2022-08-01T02:23:12;100965.31;;;21.40;100.00
63808;BME280;49961;43.970;22.868;2022-08-01T02:24:19;100955.38;;;21.45;100.00
63808;BME280;49961;43.970;22.868;2022-08-01T02:25:28;100960.94;;;21.34;100.00
63808;BME280;49961;43.970;22.868;2022-08-01T02:26:29;100943.22;;;21.33;100.00
63808;BME280;49961;43.970;22.868;2022-08-01T02:27:42;100909.69;;;21.10;100.00
63808;BME280;49961;43.970;22.868;2022-08-01T02:28:54;100967.88;;;21.38;100.00
63808;BME280;49961;43.970;22.868;2022-08-01T02:30:03;100954.03;;;21.40;100.00
63808;BME280;49961;43.970;22.868;2022-08-01T02:31:07;100960.31;;;21.50;100.00
63808;BME280;49961;43.970;22.868;2022-08-01T02:32:23;100960.06;;;21.53;100.00
63808;BME280;49961;43.970;22.868;2022-08-01T02:33:29;100904.22;;;21.01;100.00
63808;BME280;49961;43.970;22.868;2022-08-01T02:34:32;100972.53;;;21.41;100.00
63808;BME280;49961;43.970;22.868;2022-08-01T02:35:37;100965.13;;;21.44;100.00
63808;BME280;49961;43.970;22.868;2022-08-01T02:36:39;100938.13;;;21.37;100.00
63808;BME280;49961;43.970;22.868;2022-08-01T02:37:41;100974.63;;;21.46;100.00
63808;BME280;49961;43.970;22.868;2022-08-01T02:38:44;100959.75;;;21.46;100.00
63808;BME280;49961;43.970;22.868;2022-08-01T02:39:47;100951.28;;;21.46;100.00
63808;BME280;49961;43.970;22.868;2022-08-01T02:40:52;100951.06;;;21.49;100.00
63808;BME280;49961;43.970;22.868;2022-08-01T02:41:57;100913.09;;;21.19;100.00
63808;BME280;49961;43.970;22.868;2022-08-01T02:43:02;100955.97;;;21.54;100.00
63808;BME280;49961;43.970;22.868;2022-08-01T02:44:05;100865.72;;;20.92;100.00
63808;BME280;49961;43.970;22.868;2022-08-01T02:45:08;100927.69;;;21.43;100.00
63808;BME280;49961;43.970;22.868;2022-08-01T02:46:16;100951.94;;;21.61;100.00
63808;BME280;49961;43.970;22.868;2022-08-01T02:47:19;100948.31;;;21.60;100.00
63808;BME280;49961;43.970;22.868;2022-08-01T02:48:21;100927.75;;;21.49;100.00
63808;BME280;49961;43.970;22.868;2022-08-01T02:49:28;100944.03;;;21.65;100.00
63808;BME280;49961;43.970;22.868;2022-08-01T02:50:32;100945.56;;;21.66;100.00
63808;BME280;49961;43.970;22.868;2022-08-01T02:51:35;100943.72;;;21.63;100.00
63808;BME280;49961;43.970;22.868;2022-08-01T02:52:37;100946.34;;;21.66;100.00
63808;BME280;49961;43.970;22.868;2022-08-01T02:53:40;100948.06;;;21.58;100.00
63808;BME280;49961;43.970;22.868;2022-08-01T02:54:44;100848.03;;;20.92;100.00
63808;BME280;49961;43.970;22.868;2022-08-01T02:55:46;100942.69;;;21.60;100.00
63808;BME280;49961;43.970;22.868;2022-08-01T02:56:48;100948.63;;;21.62;100.00
63808;BME280;49961;43.970;22.868;2022-08-01T02:57:51;100943.22;;;21.59;100.00
63808;BME280;49961;43.970;22.868;2022-08-01T02:58:54;100946.56;;;21.63;100.00
63808;BME280;49961;43.970;22.868;2022-08-01T02:59:56;100872.00;;;21.07;100.00
63808;BME280;49961;43.970;22.868;2022-08-01T03:00:58;100953.66;;;21.53;100.00
63808;BME280;49961;43.970;22.868;2022-08-01T03:02:00;100950.16;;;21.63;100.00
63808;BME280;49961;43.970;22.868;2022-08-01T03:03:03;100943.72;;;21.63;100.00
63808;BME280;49961;43.970;22.868;2022-08-01T03:04:05;100951.94;;;21.61;100.00
63808;BME280;49961;43.970;22.868;2022-08-01T03:05:07;100943.41;;;21.55;100.00
63808;BME280;49961;43.970;22.868;2022-08-01T03:06:09;100884.66;;;21.17;100.00
63808;BME280;49961;43.970;22.868;2022-08-01T03:07:11;100938.31;;;21.59;100.00
63808;BME280;49961;43.970;22.868;2022-08-01T03:08:13;100856.38;;;21.06;100.00
63808;BME280;49961;43.970;22.868;2022-08-01T03:09:16;100944.97;;;21.56;100.00
63808;BME280;49961;43.970;22.868;2022-08-01T03:10:18;100941.38;;;21.56;100.00
63808;BME280;49961;43.970;22.868;2022-08-01T03:11:20;100938.81;;;21.58;100.00
63808;BME280;49961;43.970;22.868;2022-08-01T03:12:27;100937.44;;;21.48;100.00
63808;BME280;49961;43.970;22.868;2022-08-01T03:13:30;100938.47;;;21.45;100.00
63808;BME280;49961;43.970;22.868;2022-08-01T03:14:35;100919.06;;;21.27;100.00
63808;BME280;49961;43.970;22.868;2022-08-01T03:15:39;100925.03;;;21.34;100.00
63808;BME280;49961;43.970;22.868;2022-08-01T03:16:42;100937.34;;;21.37;100.00
63808;BME280;49961;43.970;22.868;2022-08-01T03:17:45;100928.63;;;21.35;100.00
63808;BME280;49961;43.970;22.868;2022-08-01T03:18:48;100856.09;;;20.79;100.00
63808;BME280;49961;43.970;22.868;2022-08-01T03:19:51;100925.31;;;21.36;100.00
63808;BME280;49961;43.970;22.868;2022-08-01T03:22:13;100930.44;;;21.38;100.00
63808;BME280;49961;43.970;22.868;2022-08-01T03:23:15;100934.53;;;21.37;100.00
63808;BME280;49961;43.970;22.868;2022-08-01T03:24:18;100942.25;;;21.36;100.00
63808;BME280;49961;43.970;22.868;2022-08-01T03:25:21;100930.25;;;21.41;100.00
63808;BME280;49961;43.970;22.868;2022-08-01T03:26:21;100934.59;;;21.42;100.00
63808;BME280;49961;43.970;22.868;2022-08-01T03:27:24;100939.75;;;21.44;100.00
63808;BME280;49961;43.970;22.868;2022-08-01T03:28:25;100942.56;;;21.44;100.00
63808;BME280;49961;43.970;22.868;2022-08-01T03:29:27;100841.22;;;20.78;100.00
63808;BME280;49961;43.970;22.868;2022-08-01T03:32:27;100955.00;;;21.63;100.00
63808;BME280;49961;43.970;22.868;2022-08-01T03:33:28;100881.84;;;21.17;100.00
63808;BME280;49961;43.970;22.868;2022-08-01T03:34:29;100949.09;;;21.61;100.00
63808;BME280;49961;43.970;22.868;2022-08-01T03:35:33;100864.88;;;21.12;100.00
63808;BME280;49961;43.970;22.868;2022-08-01T03:36:48;100955.91;;;21.74;100.00
63808;BME280;49961;43.970;22.868;2022-08-01T03:37:52;100929.31;;;21.55;100.00
63808;BME280;49961;43.970;22.868;2022-08-01T03:38:57;100899.72;;;21.40;100.00
63808;BME280;49961;43.970;22.868;2022-08-01T03:40:02;100967.78;;;21.84;100.00
63808;BME280;49961;43.970;22.868;2022-08-01T03:41:12;100842.84;;;21.10;100.00
63808;BME280;49961;43.970;22.868;2022-08-01T03:42:19;100962.25;;;21.95;100.00
63808;BME280;49961;43.970;22.868;2022-08-01T03:43:33;100960.72;;;21.99;100.00
63808;BME280;49961;43.970;22.868;2022-08-01T03:44:36;100946.53;;;21.88;100.00
63808;BME280;49961;43.970;22.868;2022-08-01T03:45:41;100956.69;;;22.11;100.00
63808;BME280;49961;43.970;22.868;2022-08-01T03:46:53;100884.09;;;21.70;100.00
63808;BME280;49961;43.970;22.868;2022-08-01T03:48:00;100954.22;;;22.24;100.00
63808;BME280;49961;43.970;22.868;2022-08-01T03:49:07;100957.56;;;22.28;100.00
63808;BME280;49961;43.970;22.868;2022-08-01T03:50:13;100934.34;;;22.08;100.00
63808;BME280;49961;43.970;22.868;2022-08-01T03:51:15;100961.75;;;22.44;100.00
63808;BME280;49961;43.970;22.868;2022-08-01T03:52:18;100973.53;;;22.42;100.00
63808;BME280;49961;43.970;22.868;2022-08-01T03:53:22;100891.94;;;21.97;100.00
63808;BME280;49961;43.970;22.868;2022-08-01T03:54:40;100973.13;;;22.49;100.00
63808;BME280;49961;43.970;22.868;2022-08-01T03:55:43;100881.34;;;21.81;100.00
63808;BME280;49961;43.970;22.868;2022-08-01T03:56:45;100978.69;;;22.44;100.00
63808;BME280;49961;43.970;22.868;2022-08-01T03:57:48;100980.03;;;22.48;100.00
63808;BME280;49961;43.970;22.868;2022-08-01T03:58:50;100970.53;;;22.51;100.00
63808;BME280;49961;43.970;22.868;2022-08-01T03:59:51;100973.66;;;22.59;100.00
63808;BME280;49961;43.970;22.868;2022-08-01T04:00:52;100971.91;;;22.67;100.00
63808;BME280;49961;43.970;22.868;2022-08-01T04:01:55;100959.28;;;22.62;100.00
63808;BME280;49961;43.970;22.868;2022-08-01T04:02:56;100914.50;;;22.39;100.00
63808;BME280;49961;43.970;22.868;2022-08-01T04:03:58;100897.53;;;22.33;100.00
63808;BME280;49961;43.970;22.868;2022-08-01T04:04:59;100983.53;;;22.85;100.00
63808;BME280;49961;43.970;22.868;2022-08-01T04:06:04;100969.91;;;22.84;100.00
63808;BME280;49961;43.970;22.868;2022-08-01T04:07:04;100974.06;;;22.94;100.00
63808;BME280;49961;43.970;22.868;2022-08-01T04:08:07;100968.94;;;22.98;100.00
63808;BME280;49961;43.970;22.868;2022-08-01T04:09:08;100978.44;;;22.95;100.00
63808;BME280;49961;43.970;22.868;2022-08-01T04:10:08;100974.09;;;22.99;100.00
63808;BME280;49961;43.970;22.868;2022-08-01T04:11:09;100896.34;;;22.51;100.00
63808;BME280;49961;43.970;22.868;2022-08-01T04:12:10;100971.78;;;23.09;100.00
63808;BME280;49961;43.970;22.868;2022-08-01T04:13:11;100979.78;;;23.10;100.00
63808;BME280;49961;43.970;22.868;2022-08-01T04:14:11;100969.47;;;23.07;100.00
63808;BME280;49961;43.970;22.868;2022-08-01T04:15:11;100943.69;;;22.83;100.00
63808;BME280;49961;43.970;22.868;2022-08-01T04:16:12;100971.25;;;23.05;100.00
63808;BME280;49961;43.970;22.868;2022-08-01T04:17:12;100917.22;;;22.70;100.00
63808;BME280;49961;43.970;22.868;2022-08-01T04:18:13;100981.28;;;23.06;100.00
63808;BME280;49961;43.970;22.868;2022-08-01T04:19:13;100989.25;;;23.02;100.00
63808;BME280;49961;43.970;22.868;2022-08-01T04:20:14;100915.38;;;22.56;100.00
63808;BME280;49961;43.970;22.868;2022-08-01T04:21:18;100933.88;;;22.62;100.00
63808;BME280;49961;43.970;22.868;2022-08-01T04:22:21;100988.72;;;22.98;100.00
63808;BME280;49961;43.970;22.868;2022-08-01T04:23:24;100993.34;;;23.01;100.00
63808;BME280;49961;43.970;22.868;2022-08-01T04:24:27;100951.88;;;22.76;100.00
63808;BME280;49961;43.970;22.868;2022-08-01T04:25:33;100985.41;;;22.99;100.00
63808;BME280;49961;43.970;22.868;2022-08-01T04:26:36;100995.94;;;23.04;100.00
63808;BME280;49961;43.970;22.868;2022-08-01T04:27:38;100938.75;;;22.62;100.00
63808;BME280;49961;43.970;22.868;2022-08-01T04:28:41;100904.72;;;22.40;100.00
63808;BME280;49961;43.970;22.868;2022-08-01T04:29:43;100980.97;;;22.82;100.00
63808;BME280;49961;43.970;22.868;2022-08-01T04:30:46;101000.78;;;22.98;100.00
63808;BME280;49961;43.970;22.868;2022-08-01T04:31:48;100994.09;;;22.96;100.00
63808;BME280;49961;43.970;22.868;2022-08-01T04:32:51;100992.34;;;23.04;100.00
63808;BME280;49961;43.970;22.868;2022-08-01T04:33:54;100924.09;;;22.58;100.00
63808;BME280;49961;43.970;22.868;2022-08-01T04:34:56;100991.06;;;23.05;100.00
63808;BME280;49961;43.970;22.868;2022-08-01T04:35:59;100996.19;;;23.06;100.00
63808;BME280;49961;43.970;22.868;2022-08-01T04:37:02;100989.78;;;23.11;100.00
63808;BME280;49961;43.970;22.868;2022-08-01T04:38:03;100984.88;;;23.12;100.00
63808;BME280;49961;43.970;22.868;2022-08-01T04:39:05;100986.22;;;23.16;100.00
63808;BME280;49961;43.970;22.868;2022-08-01T04:40:07;100989.78;;;23.17;100.00
63808;BME280;49961;43.970;22.868;2022-08-01T04:41:11;100991.13;;;23.21;100.00
63808;BME280;49961;43.970;22.868;2022-08-01T04:43:14;100990.38;;;23.26;100.00
63808;BME280;49961;43.970;22.868;2022-08-01T04:44:15;100987.53;;;23.26;100.00
63808;BME280;49961;43.970;22.868;2022-08-01T04:45:16;100928.59;;;22.97;100.00
63808;BME280;49961;43.970;22.868;2022-08-01T04:46:18;100937.06;;;22.97;100.00
63808;BME280;49961;43.970;22.868;2022-08-01T04:47:19;100991.19;;;23.38;100.00
63808;BME280;49961;43.970;22.868;2022-08-01T04:48:21;100988.34;;;23.38;100.00
63808;BME280;49961;43.970;22.868;2022-08-01T04:49:24;100953.53;;;23.10;100.00
63808;BME280;49961;43.970;22.868;2022-08-01T04:50:25;100987.56;;;23.37;100.00
63808;BME280;49961;43.970;22.868;2022-08-01T04:51:26;101001.44;;;23.30;100.00
63808;BME280;49961;43.970;22.868;2022-08-01T04:52:36;100999.66;;;23.38;100.00
63808;BME280;49961;43.970;22.868;2022-08-01T04:53:37;100919.59;;;22.88;100.00
63808;BME280;49961;43.970;22.868;2022-08-01T04:54:37;100926.00;;;22.94;100.00
63808;BME280;49961;43.970;22.868;2022-08-01T04:55:38;100999.63;;;23.32;100.00
63808;BME280;49961;43.970;22.868;2022-08-01T04:56:38;100934.25;;;23.03;100.00
63808;BME280;49961;43.970;22.868;2022-08-01T04:57:41;101005.59;;;23.56;100.00
63808;BME280;49961;43.970;22.868;2022-08-01T04:58:43;100996.06;;;23.59;100.00
63808;BME280;49961;43.970;22.868;2022-08-01T04:59:44;100999.41;;;23.63;100.00
63808;BME280;49961;43.970;22.868;2022-08-01T05:00:45;100936.13;;;23.28;100.00
63808;BME280;49961;43.970;22.868;2022-08-01T05:01:49;100996.88;;;23.76;100.00
63808;BME280;49961;43.970;22.868;2022-08-01T05:02:50;101000.97;;;23.81;100.00
63808;BME280;49961;43.970;22.868;2022-08-01T05:03:51;101000.47;;;23.82;100.00
63808;BME280;49961;43.970;22.868;2022-08-01T05:04:51;101003.53;;;23.84;100.00
63808;BME280;49961;43.970;22.868;2022-08-01T05:05:51;101003.56;;;23.90;100.00
63808;BME280;49961;43.970;22.868;2022-08-01T05:06:52;100998.66;;;23.90;100.00
63808;BME280;49961;43.970;22.868;2022-08-01T05:07:52;100980.63;;;23.77;100.00
63808;BME280;49961;43.970;22.868;2022-08-01T05:08:53;100989.66;;;23.92;100.00
63808;BME280;49961;43.970;22.868;2022-08-01T05:09:53;101000.72;;;23.95;100.00
63808;BME280;49961;43.970;22.868;2022-08-01T05:10:54;100926.63;;;23.53;100.00
63808;BME280;49961;43.970;22.868;2022-08-01T05:11:54;100991.72;;;24.02;100.00
63808;BME280;49961;43.970;22.868;2022-08-01T05:12:58;101000.72;;;24.06;100.00
63808;BME280;49961;43.970;22.868;2022-08-01T05:13:58;100920.44;;;23.65;100.00
63808;BME280;49961;43.970;22.868;2022-08-01T05:14:59;100993.50;;;24.05;100.00
63808;BME280;49961;43.970;22.868;2022-08-01T05:16:00;100777.50;;;22.71;100.00
63808;BME280;49961;43.970;22.868;2022-08-01T05:17:05;100987.34;;;24.07;100.00
63808;BME280;49961;43.970;22.868;2022-08-01T05:18:06;100888.84;;;23.45;100.00
63808;BME280;49961;43.970;22.868;2022-08-01T05:19:07;100987.09;;;24.05;100.00
63808;BME280;49961;43.970;22.868;2022-08-01T05:20:08;100962.16;;;23.92;100.00
63808;BME280;49961;43.970;22.868;2022-08-01T05:21:09;100988.63;;;24.17;100.00
63808;BME280;49961;43.970;22.868;2022-08-01T05:22:10;100989.38;;;24.23;100.00
63808;BME280;49961;43.970;22.868;2022-08-01T05:23:10;100966.25;;;24.02;100.00
63808;BME280;49961;43.970;22.868;2022-08-01T05:24:11;100983.44;;;24.32;100.00
63808;BME280;49961;43.970;22.868;2022-08-01T05:25:12;100906.03;;;23.80;100.00
63808;BME280;49961;43.970;22.868;2022-08-01T05:26:13;100981.34;;;24.38;100.00
63808;BME280;49961;43.970;22.868;2022-08-01T05:27:13;100989.34;;;24.34;100.00
63808;BME280;49961;43.970;22.868;2022-08-01T05:28:14;100982.91;;;24.33;99.95
63808;BME280;49961;43.970;22.868;2022-08-01T05:29:15;100983.69;;;24.34;100.00
63808;BME280;49961;43.970;22.868;2022-08-01T05:30:16;100889.31;;;23.76;100.00
63808;BME280;49961;43.970;22.868;2022-08-01T05:31:16;100986.22;;;24.48;100.00
63808;BME280;49961;43.970;22.868;2022-08-01T05:32:17;100994.47;;;24.46;100.00